Syn Tabit — IBEK — position and weather

sailwx.info

Track history (hours):
 
Tides and Currents Weather Stations Pressure Air Temp Water Temp Dewpoint Dewpoint Depression Visibility Wind Speed Wind Dir Waves Ship Positions

Syn Tabit

Last reported at 2017-Nov-14 10:58 UTC. Time now 2017-Nov-18 08:33 UTC.
Position N 44°33' E 012°40'.

Length 95 m; draft 6.5 m.

Type: Ship (hazmat cat B). MMSI: 247325500.

Date/timePositionNaut miles runAvg speedWind from/ knotsBaromVisibWave heightAir tempDewpointWater temp
2017-Nov-14 10:58N 44°33' E 012°40'8 7.4
2017-Nov-14 09:56N 44°40' E 012°44'3 7.4
2017-Nov-14 09:30N 44°43' E 012°46'2 4.7
2017-Nov-14 09:00N 44°45' E 012°46'2 4.3
2017-Nov-14 08:29N 44°44' E 012°43'3 4.8
2017-Nov-14 07:47N 44°41' E 012°41'1 5.0
2017-Nov-14 07:30N 44°39' E 012°40'6 4.2
2017-Nov-14 05:58N 44°33' E 012°38'7 7.0
2017-Nov-14 04:55N 44°40' E 012°43'3 6.9
2017-Nov-14 04:30N 44°42' E 012°45'3 5.7
2017-Nov-14 04:00N 44°45' E 012°46'2 4.8
2017-Nov-14 03:30N 44°43' E 012°44'3 5.2
2017-Nov-14 03:00N 44°41' E 012°43'2 4.8
2017-Nov-14 02:30N 44°38' E 012°42'1 0.4
2017-Nov-13 23:32N 44°38' E 012°40'0 8.9
2017-Nov-13 23:29N 44°39' E 012°40'4 9.1
2017-Nov-13 23:00N 44°42' E 012°43'5 9.2
2017-Nov-13 22:30N 44°46' E 012°47'5 9.0
2017-Nov-13 22:00N 44°50' E 012°51'45 1.7
2017-Nov-12 20:04N 45°26' E 012°14'0 0.0
2017-Nov-12 19:52N 45°26' E 012°14'0 0.0
2017-Nov-12 19:25N 45°26' E 012°14'0 0.0
2017-Nov-12 14:02N 45°26' E 012°14'0 1.3
2017-Nov-12 14:00N 45°26' E 012°14'2 3.2
2017-Nov-12 13:30N 45°25' E 012°16'5 9.4
2017-Nov-12 13:00N 45°20' E 012°18'4 8.2
2017-Nov-12 12:30N 45°19' E 012°23'2 3.6
2017-Nov-12 12:00N 45°20' E 012°26'0 0.1
2017-Nov-12 11:29N 45°20' E 012°26'0 0.0
2017-Nov-12 10:58N 45°20' E 012°26'0 0.1
2017-Nov-12 10:26N 45°20' E 012°26'0 0.1
2017-Nov-12 09:56N 45°20' E 012°26'0 0.1
2017-Nov-12 09:26N 45°20' E 012°26'0 0.0
2017-Nov-12 08:58N 45°20' E 012°26'0 0.0
2017-Nov-12 08:28N 45°20' E 012°26'0 0.0
2017-Nov-12 07:57N 45°20' E 012°26'0 0.0
2017-Nov-12 07:28N 45°20' E 012°26'0 0.0
2017-Nov-12 06:58N 45°20' E 012°26'0 0.0
2017-Nov-12 06:29N 45°20' E 012°26'0 0.0
2017-Nov-12 05:58N 45°20' E 012°26'0 0.0
2017-Nov-12 05:28N 45°20' E 012°26'0 0.0
2017-Nov-12 04:58N 45°20' E 012°26'0 0.0
2017-Nov-12 04:29N 45°20' E 012°26'0 0.0
2017-Nov-12 03:58N 45°20' E 012°26'0 0.0
2017-Nov-12 03:28N 45°20' E 012°26'0 0.0
2017-Nov-12 02:57N 45°20' E 012°26'0 0.0
2017-Nov-12 02:29N 45°20' E 012°26'0 0.0
2017-Nov-12 01:59N 45°20' E 012°26'0 0.0
2017-Nov-12 01:29N 45°20' E 012°26'0 0.0
2017-Nov-12 00:58N 45°20' E 012°26'0 0.0
2017-Nov-12 00:22N 45°20' E 012°26'0 0.0
2017-Nov-11 23:58N 45°20' E 012°26'0 0.0
2017-Nov-11 23:28N 45°20' E 012°26'0 0.0
2017-Nov-11 22:58N 45°20' E 012°26'0 0.0
2017-Nov-11 22:28N 45°20' E 012°26'0 0.0
2017-Nov-11 21:58N 45°20' E 012°26'0 0.0
2017-Nov-11 21:28N 45°20' E 012°26'0 0.0
2017-Nov-11 20:58N 45°20' E 012°26'0 0.1
2017-Nov-11 20:30N 45°20' E 012°26'0 0.0
2017-Nov-11 19:59N 45°20' E 012°26'0 0.0
2017-Nov-11 19:26N 45°20' E 012°26'0 0.0
2017-Nov-11 19:00N 45°20' E 012°26'1 1.0
2017-Nov-11 18:29N 45°20' E 012°26'3 5.7
2017-Nov-11 18:00N 45°18' E 012°29'612.5
2017-Nov-11 17:30N 45°15' E 012°37'612.6
2017-Nov-11 17:00N 45°11' E 012°44'612.4
2017-Nov-11 16:30N 45°06' E 012°49'612.5
2017-Nov-11 16:00N 45°00' E 012°53'  
2017-Nov-06 22:57N 38°03' E 015°33'510.9
2017-Nov-06 22:27N 38°09' E 015°35'912.1
2017-Nov-06 21:41N 38°17' E 015°40'213.2
2017-Nov-06 21:30N 38°19' E 015°38'712.8
2017-Nov-06 20:58N 38°24' E 015°33'  
Track history (hours):
 
Tides and Currents Weather Stations Pressure Air Temp Water Temp Dewpoint Dewpoint Depression Visibility Wind Speed Wind Dir Waves Ship Positions

Syn Tabit

Last reported at 2017-Nov-14 10:58 UTC. Time now 2017-Nov-18 08:33 UTC.
Position N 44°33' E 012°40'.

Length 95 m; draft 6.5 m.

Type: Ship (hazmat cat B). MMSI: 247325500.

Date/timePositionNaut miles runAvg speedWind from/ knotsBaromVisibWave heightAir tempDewpointWater temp
2017-Nov-14 10:58N 44°33' E 012°40'8 7.4
2017-Nov-14 09:56N 44°40' E 012°44'3 7.4
2017-Nov-14 09:30N 44°43' E 012°46'2 4.7
2017-Nov-14 09:00N 44°45' E 012°46'2 4.3
2017-Nov-14 08:29N 44°44' E 012°43'3 4.8
2017-Nov-14 07:47N 44°41' E 012°41'1 5.0
2017-Nov-14 07:30N 44°39' E 012°40'6 4.2
2017-Nov-14 05:58N 44°33' E 012°38'7 7.0
2017-Nov-14 04:55N 44°40' E 012°43'3 6.9
2017-Nov-14 04:30N 44°42' E 012°45'3 5.7
2017-Nov-14 04:00N 44°45' E 012°46'2 4.8
2017-Nov-14 03:30N 44°43' E 012°44'3 5.2
2017-Nov-14 03:00N 44°41' E 012°43'2 4.8
2017-Nov-14 02:30N 44°38' E 012°42'1 0.4
2017-Nov-13 23:32N 44°38' E 012°40'0 8.9
2017-Nov-13 23:29N 44°39' E 012°40'4 9.1
2017-Nov-13 23:00N 44°42' E 012°43'5 9.2
2017-Nov-13 22:30N 44°46' E 012°47'5 9.0
2017-Nov-13 22:00N 44°50' E 012°51'45 1.7
2017-Nov-12 20:04N 45°26' E 012°14'0 0.0
2017-Nov-12 19:52N 45°26' E 012°14'0 0.0
2017-Nov-12 19:25N 45°26' E 012°14'0 0.0
2017-Nov-12 14:02N 45°26' E 012°14'0 1.3
2017-Nov-12 14:00N 45°26' E 012°14'2 3.2
2017-Nov-12 13:30N 45°25' E 012°16'5 9.4
2017-Nov-12 13:00N 45°20' E 012°18'4 8.2
2017-Nov-12 12:30N 45°19' E 012°23'2 3.6
2017-Nov-12 12:00N 45°20' E 012°26'0 0.1
2017-Nov-12 11:29N 45°20' E 012°26'0 0.0
2017-Nov-12 10:58N 45°20' E 012°26'0 0.1
2017-Nov-12 10:26N 45°20' E 012°26'0 0.1
2017-Nov-12 09:56N 45°20' E 012°26'0 0.1
2017-Nov-12 09:26N 45°20' E 012°26'0 0.0
2017-Nov-12 08:58N 45°20' E 012°26'0 0.0
2017-Nov-12 08:28N 45°20' E 012°26'0 0.0
2017-Nov-12 07:57N 45°20' E 012°26'0 0.0
2017-Nov-12 07:28N 45°20' E 012°26'0 0.0
2017-Nov-12 06:58N 45°20' E 012°26'0 0.0
2017-Nov-12 06:29N 45°20' E 012°26'0 0.0
2017-Nov-12 05:58N 45°20' E 012°26'0 0.0
2017-Nov-12 05:28N 45°20' E 012°26'0 0.0
2017-Nov-12 04:58N 45°20' E 012°26'0 0.0
2017-Nov-12 04:29N 45°20' E 012°26'0 0.0
2017-Nov-12 03:58N 45°20' E 012°26'0 0.0
2017-Nov-12 03:28N 45°20' E 012°26'0 0.0
2017-Nov-12 02:57N 45°20' E 012°26'0 0.0
2017-Nov-12 02:29N 45°20' E 012°26'0 0.0
2017-Nov-12 01:59N 45°20' E 012°26'0 0.0
2017-Nov-12 01:29N 45°20' E 012°26'0 0.0
2017-Nov-12 00:58N 45°20' E 012°26'0 0.0
2017-Nov-12 00:22N 45°20' E 012°26'0 0.0
2017-Nov-11 23:58N 45°20' E 012°26'0 0.0
2017-Nov-11 23:28N 45°20' E 012°26'0 0.0
2017-Nov-11 22:58N 45°20' E 012°26'0 0.0
2017-Nov-11 22:28N 45°20' E 012°26'0 0.0
2017-Nov-11 21:58N 45°20' E 012°26'0 0.0
2017-Nov-11 21:28N 45°20' E 012°26'0 0.0
2017-Nov-11 20:58N 45°20' E 012°26'0 0.1
2017-Nov-11 20:30N 45°20' E 012°26'0 0.0
2017-Nov-11 19:59N 45°20' E 012°26'0 0.0
2017-Nov-11 19:26N 45°20' E 012°26'0 0.0
2017-Nov-11 19:00N 45°20' E 012°26'1 1.0
2017-Nov-11 18:29N 45°20' E 012°26'3 5.7
2017-Nov-11 18:00N 45°18' E 012°29'612.5
2017-Nov-11 17:30N 45°15' E 012°37'612.6
2017-Nov-11 17:00N 45°11' E 012°44'612.4
2017-Nov-11 16:30N 45°06' E 012°49'612.5
2017-Nov-11 16:00N 45°00' E 012°53'  
2017-Nov-06 22:57N 38°03' E 015°33'510.9
2017-Nov-06 22:27N 38°09' E 015°35'912.1
2017-Nov-06 21:41N 38°17' E 015°40'213.2
2017-Nov-06 21:30N 38°19' E 015°38'712.8
2017-Nov-06 20:58N 38°24' E 015°33'  

Dump ship's entire track history